Time;durP1;ratioP1;P1;durP2;ratioP2;P2;SDS_P1;SDS_P2;PMS_P1;PMS_P2;Temp;Humidity;BMP_temperature;BMP_pressure;BME280_temperature;BME280_humidity;BME280_pressure;Samples;Min_cycle;Max_cycle;Signal;HPM_P1;HPM_P2
2022/10/14 00:01:15;;;;;;;24.90;17.97;;;;;;;11.61;100.00;96488.00;5067709;28;20464;-76
2022/10/14 00:03:42;;;;;;;28.37;19.23;;;;;;;11.57;100.00;96492.75;5063598;28;20036;-76
2022/10/14 00:06:12;;;;;;;24.60;17.70;;;;;;;11.56;100.00;96491.09;5067858;28;20044;-76
2022/10/14 00:08:39;;;;;;;25.97;19.73;;;;;;;11.55;100.00;96492.91;5065722;28;20039;-76
2022/10/14 00:11:07;;;;;;;26.33;20.70;;;;;;;11.53;100.00;96494.03;5066089;28;20391;-76
2022/10/14 00:13:32;;;;;;;27.13;19.77;;;;;;;11.55;100.00;96495.53;5065521;28;20575;-76
2022/10/14 00:15:58;;;;;;;24.73;17.80;;;;;;;11.52;100.00;96489.75;5061737;28;20115;-76
2022/10/14 00:18:26;;;;;;;23.00;18.93;;;;;;;11.50;100.00;96489.94;5067339;28;20059;-76
2022/10/14 00:20:54;;;;;;;27.80;19.30;;;;;;;11.52;100.00;96487.94;5033941;28;20511;-76
2022/10/14 00:23:20;;;;;;;28.97;20.17;;;;;;;11.49;100.00;96492.69;5049143;28;20057;-76
2022/10/14 00:25:45;;;;;;;30.30;19.27;;;;;;;11.49;100.00;96498.78;5064470;28;20068;-76
2022/10/14 00:28:11;;;;;;;29.73;20.40;;;;;;;11.49;100.00;96487.44;5065901;28;20451;-76
2022/10/14 00:30:37;;;;;;;27.70;20.13;;;;;;;11.44;100.00;96487.09;5051202;28;20056;-76
2022/10/14 00:33:02;;;;;;;26.70;19.97;;;;;;;11.49;100.00;96490.06;5047212;28;20036;-76
2022/10/14 00:35:30;;;;;;;29.17;19.37;;;;;;;11.47;100.00;96487.59;5061481;28;20037;-76
2022/10/14 00:37:57;;;;;;;33.63;20.27;;;;;;;11.47;100.00;96484.97;5048869;28;20033;-76
2022/10/14 00:40:24;;;;;;;26.27;19.77;;;;;;;11.45;100.00;96486.94;5049124;28;20770;-76
2022/10/14 00:42:50;;;;;;;28.13;21.17;;;;;;;11.44;100.00;96487.09;5058267;28;20044;-76
2022/10/14 00:45:21;;;;;;;27.30;20.97;;;;;;;11.42;100.00;96489.88;5045892;28;20033;-76
2022/10/14 00:47:48;;;;;;;28.87;21.10;;;;;;;11.41;100.00;96484.78;5045375;28;20037;-76
2022/10/14 00:50:15;;;;;;;27.23;20.97;;;;;;;11.43;100.00;96488.06;5063110;28;20123;-76
2022/10/14 00:52:42;;;;;;;28.90;20.90;;;;;;;11.42;100.00;96489.88;5048975;28;20029;-76
2022/10/14 00:55:27;;;;;;;28.20;20.83;;;;;;;11.43;100.00;96485.44;5062012;28;20040;-76
2022/10/14 00:57:53;;;;;;;30.00;21.17;;;;;;;11.43;100.00;96488.88;5044414;28;20040;-76
2022/10/14 01:00:20;;;;;;;31.57;21.60;;;;;;;11.42;100.00;96489.88;5055222;28;20056;-76
2022/10/14 01:02:47;;;;;;;35.07;21.87;;;;;;;11.42;100.00;96489.88;5063336;28;20125;-76
2022/10/14 01:05:14;;;;;;;25.23;19.17;;;;;;;11.40;100.00;96489.22;5069599;28;20046;-76
2022/10/14 01:07:55;;;;;;;28.67;20.77;;;;;;;11.39;100.00;96492.81;5069041;28;20032;-76
2022/10/14 01:10:46;;;;;;;24.53;17.97;;;;;;;11.39;100.00;96492.81;5069094;28;20462;-76
2022/10/14 01:13:44;;;;;;;26.43;18.17;;;;;;;11.31;100.00;96487.53;5069174;28;20024;-76
2022/10/14 01:16:38;;;;;;;29.67;19.90;;;;;;;11.28;100.00;96485.22;5070426;28;20039;-76
2022/10/14 01:19:26;;;;;;;24.35;17.52;;;;;;;11.31;100.00;96488.34;5032295;28;20077;-76
2022/10/14 01:22:07;;;;;;;28.00;18.57;;;;;;;11.30;100.00;96486.72;5059690;28;20072;-76
2022/10/14 01:24:47;;;;;;;26.43;18.50;;;;;;;11.29;100.00;96485.03;5038458;28;20033;-75
2022/10/14 01:27:39;;;;;;;24.53;19.60;;;;;;;11.28;100.00;96478.13;5067722;28;20105;-76
2022/10/14 01:30:10;;;;;;;25.57;19.27;;;;;;;11.23;100.00;96474.31;5064060;28;20889;-76
2022/10/14 01:32:51;;;;;;;27.57;19.90;;;;;;;11.25;100.00;96475.81;5049569;28;20032;-76
2022/10/14 01:35:22;;;;;;;23.73;19.27;;;;;;;11.24;100.00;96470.72;5070310;28;20050;-76
2022/10/14 01:37:56;;;;;;;23.33;18.20;;;;;;;11.24;100.00;96470.72;5067726;28;20411;-76
2022/10/14 01:40:48;;;;;;;30.07;19.93;;;;;;;11.24;100.00;96476.81;5068763;28;20036;-76
2022/10/14 01:43:18;;;;;;;16.88;13.50;;;;;;;11.27;100.00;96475.66;5052255;28;20052;-76
2022/10/14 01:45:48;;;;;;;26.37;18.97;;;;;;;11.21;100.00;96471.03;5052444;28;20036;-76
2022/10/14 01:48:18;;;;;;;24.10;17.67;;;;;;;11.24;100.00;96468.91;5068107;28;20582;-75
2022/10/14 01:50:48;;;;;;;24.50;18.83;;;;;;;11.20;100.00;96469.34;5069269;28;20048;-75
2022/10/14 01:53:19;;;;;;;31.00;19.17;;;;;;;11.21;100.00;96471.03;5059911;28;20028;-76
2022/10/14 01:55:46;;;;;;;24.10;17.57;;;;;;;11.17;100.00;96464.44;5058102;28;20427;-76
2022/10/14 01:58:17;;;;;;;24.03;17.80;;;;;;;11.16;100.00;96468.03;5061463;28;20029;-76
2022/10/14 02:00:43;;;;;;;24.33;18.47;;;;;;;11.10;100.00;96469.50;5068259;28;20198;-76
2022/10/14 02:03:12;;;;;;;24.50;17.53;;;;;;;11.08;100.00;96472.28;5070098;28;20565;-76
2022/10/14 02:05:48;;;;;;;22.87;17.10;;;;;;;11.14;100.00;96472.66;5071765;28;20029;-76
2022/10/14 02:08:22;;;;;;;22.10;16.53;;;;;;;11.15;100.00;96466.38;5069972;28;20035;-76
2022/10/14 02:10:50;;;;;;;22.27;16.97;;;;;;;11.14;100.00;96467.38;5035151;28;20045;-75
2022/10/14 02:13:28;;;;;;;21.20;16.80;;;;;;;11.12;100.00;96471.97;5053688;28;20086;-76
2022/10/14 02:16:25;;;;;;;22.43;16.70;;;;;;;11.16;100.00;96468.84;5053678;28;20403;-76
2022/10/14 02:19:11;;;;;;;22.53;15.83;;;;;;;11.13;100.00;96469.16;5046768;28;20068;-76
2022/10/14 02:22:03;;;;;;;21.57;15.97;;;;;;;11.11;100.00;96457.97;5036575;28;20446;-75
2022/10/14 02:24:38;;;;;;;19.57;15.37;;;;;;;11.06;100.00;96458.44;5069972;28;20032;-76
2022/10/14 02:27:11;;;;;;;17.70;14.10;;;;;;;11.06;100.00;96458.44;5062941;28;20082;-75
2022/10/14 02:29:39;;;;;;;31.40;16.73;;;;;;;11.04;100.00;96459.59;5067419;28;20540;-76
2022/10/14 02:32:07;;;;;;;26.30;16.40;;;;;;;11.03;100.00;96460.56;5069683;28;20121;-76
2022/10/14 02:34:33;;;;;;;19.13;14.40;;;;;;;11.06;100.00;96458.44;5070059;28;20048;-76
2022/10/14 02:37:00;;;;;;;20.20;13.90;;;;;;;11.02;100.00;96449.22;5053144;28;20028;-75
2022/10/14 02:39:35;;;;;;;18.63;14.73;;;;;;;11.06;100.00;96452.34;5053557;28;20119;-75
2022/10/14 02:42:03;;;;;;;17.55;14.00;;;;;;;11.06;100.00;96447.91;5069791;28;20085;-76
2022/10/14 02:44:32;;;;;;;21.70;14.83;;;;;;;11.05;100.00;96443.63;5069437;28;20487;-75
2022/10/14 02:46:58;;;;;;;19.93;14.13;;;;;;;11.09;100.00;96452.84;5069645;28;20067;-75
2022/10/14 02:49:27;;;;;;;18.13;14.17;;;;;;;11.07;100.00;96448.75;5053275;28;20119;-75
2022/10/14 02:51:52;;;;;;;24.00;13.90;;;;;;;11.03;100.00;96442.13;5052283;28;20135;-76
2022/10/14 02:54:18;;;;;;;19.60;13.60;;;;;;;11.04;100.00;96435.91;5048918;28;20017;-75
2022/10/14 02:56:44;;;;;;;19.77;13.80;;;;;;;11.02;100.00;96440.50;5070202;28;20033;-75
2022/10/14 02:59:10;;;;;;;20.10;13.93;;;;;;;10.99;100.00;96436.34;5049661;28;20107;-76
2022/10/14 03:01:37;;;;;;;22.33;13.83;;;;;;;10.97;100.00;96438.34;5100657;28;20035;-75
2022/10/14 03:04:04;;;;;;;26.30;18.60;;;;;;;10.99;100.00;96433.72;5067238;28;20028;-75
2022/10/14 03:06:29;;;;;;;21.13;15.17;;;;;;;10.95;100.00;96434.22;5067420;28;20118;-76
2022/10/14 03:08:57;;;;;;;18.87;13.43;;;;;;;10.95;100.00;96429.75;5066108;28;20082;-76
2022/10/14 03:11:24;;;;;;;20.60;13.33;;;;;;;10.95;100.00;96428.94;5066571;28;20402;-76
2022/10/14 03:13:51;;;;;;;17.80;13.20;;;;;;;10.94;100.00;96425.50;5063159;28;20079;-76
2022/10/14 03:16:19;;;;;;;17.53;13.63;;;;;;;10.90;100.00;96434.69;5065681;28;20035;-75
2022/10/14 03:18:44;;;;;;;19.17;14.53;;;;;;;10.89;100.00;96432.19;5066268;28;20025;-75
2022/10/14 03:21:30;;;;;;;17.93;12.53;;;;;;;10.90;100.00;96425.94;5066477;28;20490;-76
2022/10/14 03:23:57;;;;;;;20.77;14.57;;;;;;;10.89;100.00;96419.03;5048949;28;20078;-75
2022/10/14 03:26:30;;;;;;;17.60;13.20;;;;;;;10.94;100.00;96422.03;5066545;28;20051;-76
2022/10/14 03:28:56;;;;;;;21.77;14.70;;;;;;;10.94;100.00;96417.59;5057763;28;20025;-76
2022/10/14 03:31:28;;;;;;;19.53;14.43;;;;;;;10.98;100.00;96421.56;5056290;28;20123;-76
2022/10/14 03:34:32;;;;;;;;;;;;;;;10.96;100.00;96410.34;5058836;28;20448;-75
2022/10/14 03:37:11;;;;;;;22.47;14.37;;;;;;;11.00;100.00;96410.88;5045158;28;19913;-76
2022/10/14 03:39:44;;;;;;;27.73;20.05;;;;;;;10.97;100.00;96414.66;5038084;28;20149;-76
2022/10/14 03:42:11;;;;;;;27.07;17.97;;;;;;;11.00;100.00;96416.97;5046747;28;20037;-76
2022/10/14 03:44:42;;;;;;;21.87;14.17;;;;;;;10.99;100.00;96414.50;5031035;28;20029;-76
2022/10/14 03:47:21;;;;;;;18.97;13.83;;;;;;;10.97;100.00;96416.47;5031946;28;20665;-76
2022/10/14 03:49:47;;;;;;;18.57;14.33;;;;;;;10.98;100.00;96413.66;5059564;28;20037;-75
2022/10/14 03:52:32;;;;;;;20.67;13.63;;;;;;;10.98;100.00;96413.66;5068192;28;20059;-76
2022/10/14 03:55:04;;;;;;;20.63;14.90;;;;;;;11.00;100.00;96411.72;5058507;28;20024;-76
2022/10/14 03:57:29;;;;;;;21.77;13.87;;;;;;;10.99;100.00;96410.03;5049027;28;20458;-76
2022/10/14 03:59:58;;;;;;;17.80;14.03;;;;;;;11.00;100.00;96410.88;5065910;28;20641;-76
2022/10/14 04:02:40;;;;;;;21.30;13.83;;;;;;;10.97;100.00;96401.50;5066694;28;20040;-75
2022/10/14 04:05:12;;;;;;;20.52;13.07;;;;;;;10.98;100.00;96397.88;5058526;28;20685;-75
2022/10/14 04:07:39;;;;;;;22.13;13.43;;;;;;;10.95;100.00;96403.47;5048296;28;20036;-76
2022/10/14 04:10:06;;;;;;;21.50;15.13;;;;;;;10.92;100.00;96398.50;5049862;28;20202;-75
2022/10/14 04:12:31;;;;;;;20.93;14.07;;;;;;;10.93;100.00;96402.81;5049713;28;20032;-75
2022/10/14 04:15:08;;;;;;;20.20;14.00;;;;;;;10.94;100.00;96396.56;5050408;28;20123;-75
2022/10/14 04:17:48;;;;;;;22.10;13.40;;;;;;;10.96;100.00;96394.56;5065961;28;20044;-76
2022/10/14 04:20:15;;;;;;;20.97;14.43;;;;;;;10.98;100.00;96391.78;5049563;28;20415;-75
2022/10/14 04:22:41;;;;;;;21.20;14.40;;;;;;;10.96;100.00;96391.94;5066020;28;20032;-75
2022/10/14 04:25:07;;;;;;;18.53;14.03;;;;;;;11.00;100.00;96395.94;5056405;28;20029;-74
2022/10/14 04:27:33;;;;;;;18.17;14.13;;;;;;;10.97;100.00;96388.34;5061842;28;20040;-74
2022/10/14 04:30:07;;;;;;;22.02;15.57;;;;;;;10.95;100.00;96390.28;5035970;28;20028;-75
2022/10/14 04:32:43;;;;;;;18.17;13.43;;;;;;;10.98;100.00;96384.72;5086088;28;20048;-75
2022/10/14 04:35:10;;;;;;;18.17;14.07;;;;;;;10.91;100.00;96381.06;5056026;28;20032;-75
2022/10/14 04:37:41;;;;;;;20.87;14.33;;;;;;;10.92;100.00;96377.47;5056146;28;20205;-76
2022/10/14 04:40:11;;;;;;;24.53;13.20;;;;;;;10.94;100.00;96378.13;5075570;28;20048;-76
2022/10/14 04:42:42;;;;;;;19.60;13.47;;;;;;;10.93;100.00;96371.22;5062117;28;20519;-76
2022/10/14 04:45:17;;;;;;;23.13;15.33;;;;;;;10.90;100.00;96371.53;5057159;28;20109;-75
2022/10/14 04:47:50;;;;;;;21.77;14.67;;;;;;;10.92;100.00;96369.56;5053132;28;20029;-75
2022/10/14 04:50:20;;;;;;;25.03;14.80;;;;;;;10.93;100.00;96362.50;5063068;28;20028;-75
2022/10/14 04:53:05;;;;;;;19.20;14.60;;;;;;;10.88;100.00;96355.09;5072103;28;20770;-75
2022/10/14 04:55:30;;;;;;;23.50;14.53;;;;;;;10.85;100.00;96358.84;5072331;28;20127;-75
2022/10/14 04:57:56;;;;;;;20.50;14.23;;;;;;;10.83;100.00;96362.59;5071843;28;20032;-75
2022/10/14 05:00:22;;;;;;;21.17;15.57;;;;;;;10.85;100.00;96361.47;5065827;28;20048;-75
2022/10/14 05:02:53;;;;;;;25.07;16.43;;;;;;;10.78;100.00;96352.56;5053152;28;20032;-75
2022/10/14 05:05:26;;;;;;;20.57;15.37;;;;;;;10.80;100.00;96350.63;5072399;28;20032;-75
2022/10/14 05:07:55;;;;;;;22.23;15.57;;;;;;;10.76;100.00;96351.06;5072356;28;20035;-75
2022/10/14 05:10:26;;;;;;;22.83;16.50;;;;;;;10.83;100.00;96346.81;5072921;28;20086;-75
2022/10/14 05:12:53;;;;;;;26.07;17.87;;;;;;;10.78;100.00;96357.00;5073264;28;20127;-74
2022/10/14 05:15:20;;;;;;;24.03;16.70;;;;;;;10.78;100.00;96359.63;5073294;28;20047;-75
2022/10/14 05:17:57;;;;;;;24.10;16.87;;;;;;;10.82;100.00;96353.06;5072974;28;20074;-75
2022/10/14 05:20:38;;;;;;;25.47;16.83;;;;;;;10.80;100.00;96360.31;5058251;28;20032;-75
2022/10/14 05:23:05;;;;;;;29.63;18.10;;;;;;;10.77;100.00;96358.00;5072776;28;20089;-75
2022/10/14 05:25:31;;;;;;;24.40;17.60;;;;;;;10.75;100.00;96344.16;5047553;28;20017;-74
2022/10/14 05:27:57;;;;;;;24.40;17.60;;;;;;;10.72;100.00;96345.31;5071254;28;20436;-75
2022/10/14 05:30:24;;;;;;;23.90;17.43;;;;;;;10.79;100.00;96348.13;5056030;28;20028;-75
2022/10/14 05:32:51;;;;;;;23.47;17.73;;;;;;;10.71;100.00;96346.28;5069964;28;20031;-75
2022/10/14 05:35:18;;;;;;;26.53;17.63;;;;;;;10.76;100.00;96345.81;5070903;28;20443;-75
2022/10/14 05:37:44;;;;;;;23.03;17.33;;;;;;;10.81;100.00;96338.28;5034596;28;20072;-74
2022/10/14 05:40:11;;;;;;;28.27;18.13;;;;;;;10.74;100.00;96335.47;5053785;28;20032;-75
2022/10/14 05:42:36;;;;;;;25.13;18.37;;;;;;;10.77;100.00;96334.31;5051984;28;20029;-74
2022/10/14 05:45:03;;;;;;;24.87;17.43;;;;;;;10.77;100.00;96335.16;5051236;28;20040;-74
2022/10/14 05:47:31;;;;;;;24.23;15.73;;;;;;;10.75;100.00;96328.38;5047688;28;20465;-74
2022/10/14 05:50:03;;;;;;;21.53;16.13;;;;;;;10.70;100.00;96328.06;5047741;28;20064;-75
2022/10/14 05:52:31;;;;;;;24.07;16.20;;;;;;;10.65;100.00;96328.50;5048829;28;20396;-75
2022/10/14 05:54:58;;;;;;;22.77;16.73;;;;;;;10.70;100.00;96317.53;5066985;28;20035;-75
2022/10/14 05:57:27;;;;;;;23.97;17.07;;;;;;;10.67;100.00;96318.66;5066230;28;20501;-74
2022/10/14 05:59:53;;;;;;;20.40;15.80;;;;;;;10.70;100.00;96318.34;5067384;28;20044;-75
2022/10/14 06:02:19;;;;;;;22.50;16.70;;;;;;;10.67;100.00;96309.94;5067970;28;20024;-75
2022/10/14 06:04:45;;;;;;;21.60;16.33;;;;;;;10.62;100.00;96313.84;5052103;28;20029;-74
2022/10/14 06:07:12;;;;;;;23.50;14.97;;;;;;;10.64;100.00;96318.97;5064725;28;21294;-74
2022/10/14 06:09:38;;;;;;;18.97;13.97;;;;;;;10.65;100.00;96311.91;5067625;28;20035;-74
2022/10/14 06:12:04;;;;;;;21.27;14.63;;;;;;;10.60;100.00;96309.75;5047076;28;20029;-75
2022/10/14 06:14:30;;;;;;;23.03;14.97;;;;;;;10.64;100.00;96310.25;5049069;28;20048;-75
2022/10/14 06:16:57;;;;;;;20.40;13.77;;;;;;;10.68;100.00;96311.59;5048071;28;20456;-75
2022/10/14 06:19:23;;;;;;;20.30;13.60;;;;;;;10.76;100.00;96308.97;5062932;28;20037;-75
2022/10/14 06:21:49;;;;;;;18.03;12.77;;;;;;;10.78;100.00;96313.09;5066040;28;20040;-76
2022/10/14 06:24:14;;;;;;;21.67;13.63;;;;;;;10.84;100.00;96301.97;5068697;28;20025;-75
2022/10/14 06:26:40;;;;;;;21.37;11.67;;;;;;;10.81;100.00;96312.78;5068059;28;20025;-74
2022/10/14 06:29:06;;;;;;;18.43;11.93;;;;;;;10.91;100.00;96306.59;5056329;28;20064;-75
2022/10/14 06:31:32;;;;;;;18.90;12.57;;;;;;;10.98;100.00;96300.53;5065949;28;20029;-75
2022/10/14 06:33:58;;;;;;;21.63;12.73;;;;;;;10.98;100.00;96307.59;5051159;28;20479;-74
2022/10/14 06:36:24;;;;;;;18.33;12.07;;;;;;;11.00;100.00;96301.19;5064853;28;20032;-74
2022/10/14 06:38:49;;;;;;;16.87;11.70;;;;;;;11.11;100.00;96293.97;5048053;28;20029;-74
2022/10/14 06:41:15;;;;;;;17.23;10.87;;;;;;;11.09;100.00;96296.75;5060286;28;20032;-74
2022/10/14 06:43:41;;;;;;;22.03;11.33;;;;;;;11.14;100.00;96291.84;5067653;28;20036;-75
2022/10/14 06:46:06;;;;;;;18.97;11.10;;;;;;;11.19;100.00;96294.81;5068477;28;20079;-74
2022/10/14 06:48:32;;;;;;;13.57;10.30;;;;;;;11.26;100.00;96290.53;5068949;28;20096;-74
2022/10/14 06:50:59;;;;;;;18.70;10.03;;;;;;;11.31;100.00;96287.44;5061585;28;20139;-73
2022/10/14 06:53:26;;;;;;;19.43;10.20;;;;;;;11.39;100.00;96297.16;5067014;28;20386;-75
2022/10/14 06:56:04;;;;;;;15.97;9.73;;;;;;;11.52;100.00;96294.84;5048064;28;20381;-75
2022/10/14 06:58:31;;;;;;;15.07;9.00;;;;;;;12.16;100.00;96295.03;5054155;28;20037;-75
2022/10/14 07:01:02;;;;;;;13.70;9.80;;;;;;;12.71;100.00;96288.97;5067319;28;20021;-75
2022/10/14 07:03:27;;;;;;;11.37;7.87;;;;;;;12.77;100.00;96282.16;5067819;28;20111;-75
2022/10/14 07:05:53;;;;;;;13.63;7.77;;;;;;;12.83;100.00;96279.66;5067173;28;20482;-76
2022/10/14 07:08:19;;;;;;;15.57;9.43;;;;;;;12.88;100.00;96285.25;5051228;28;20040;-75
2022/10/14 07:10:46;;;;;;;14.77;9.77;;;;;;;12.93;100.00;96282.06;5066811;28;20089;-75
2022/10/14 07:13:12;;;;;;;13.83;8.33;;;;;;;12.90;100.00;96277.97;5067974;28;20059;-74
2022/10/14 07:15:38;;;;;;;14.60;7.73;;;;;;;12.96;100.00;96284.38;5052229;28;20066;-74
2022/10/14 07:18:05;;;;;;;16.73;8.13;;;;;;;13.05;100.00;96282.53;5048407;28;20032;-75
2022/10/14 07:20:33;;;;;;;11.00;7.40;;;;;;;13.00;100.00;96282.22;5063679;28;20031;-75
2022/10/14 07:22:58;;;;;;;12.90;8.67;;;;;;;13.03;100.00;96280.03;5072568;28;20028;-76
2022/10/14 07:25:24;;;;;;;15.00;8.77;;;;;;;13.08;100.00;96279.53;5054822;28;20032;-76
2022/10/14 07:27:53;;;;;;;12.37;8.63;;;;;;;12.96;100.00;96285.19;5058064;28;20025;-76
2022/10/14 07:30:19;;;;;;;16.40;10.00;;;;;;;12.84;100.00;96291.84;5065236;28;20844;-76
2022/10/14 07:32:44;;;;;;;17.43;10.00;;;;;;;13.20;100.00;96280.78;5046921;28;20031;-76
2022/10/14 07:35:10;;;;;;;18.63;11.83;;;;;;;13.41;100.00;96288.94;5062897;28;20772;-76
2022/10/14 07:37:36;;;;;;;19.10;12.03;;;;;;;13.33;100.00;96280.25;5049290;28;20043;-76
2022/10/14 07:40:03;;;;;;;18.40;12.47;;;;;;;13.52;100.00;96281.59;5057108;28;20498;-76
2022/10/14 07:42:29;;;;;;;16.07;11.43;;;;;;;13.64;100.00;96282.81;5067063;28;20066;-76
2022/10/14 07:44:56;;;;;;;18.43;12.53;;;;;;;14.54;100.00;96285.47;5066491;28;20498;-77
2022/10/14 07:47:22;;;;;;;18.40;12.20;;;;;;;14.09;100.00;96281.13;5048566;28;20115;-76
2022/10/14 07:49:48;;;;;;;21.40;12.80;;;;;;;14.08;100.00;96284.75;5065267;28;21141;-77
2022/10/14 07:52:14;;;;;;;17.90;13.25;;;;;;;13.98;100.00;96292.13;5054244;28;20048;-76
2022/10/14 07:54:40;;;;;;;17.20;12.53;;;;;;;13.90;100.00;96301.78;5048309;28;20491;-78
2022/10/14 07:57:06;;;;;;;16.85;13.77;;;;;;;13.72;100.00;96300.44;5057374;28;20040;-76
2022/10/14 07:59:32;;;;;;;20.25;13.90;;;;;;;13.63;100.00;96294.41;5065118;28;20036;-76
2022/10/14 08:01:58;;;;;;;19.77;13.90;;;;;;;13.70;100.00;96297.97;5059805;28;20491;-77
2022/10/14 08:04:24;;;;;;;17.58;13.15;;;;;;;13.62;100.00;96282.19;5066706;28;20075;-77
2022/10/14 08:06:51;;;;;;;20.88;14.05;;;;;;;13.47;100.00;96284.75;5067352;28;20028;-77
2022/10/14 08:09:17;;;;;;;19.35;13.77;;;;;;;13.54;100.00;96290.16;5064969;28;20403;-77
2022/10/14 08:11:44;;;;;;;18.02;13.30;;;;;;;13.64;100.00;96282.81;5065243;28;20047;-77
2022/10/14 08:14:10;;;;;;;19.42;13.60;;;;;;;13.67;100.00;96288.56;5045343;28;20036;-77
2022/10/14 08:16:36;;;;;;;19.92;13.32;;;;;;;13.74;100.00;96283.41;5060635;28;20039;-77
2022/10/14 08:19:08;;;;;;;18.95;13.18;;;;;;;13.71;100.00;96275.81;5059967;28;20513;-77
2022/10/14 08:21:34;;;;;;;20.00;13.35;;;;;;;13.81;100.00;96279.03;5047192;28;20071;-77
2022/10/14 08:23:59;;;;;;;18.95;13.13;;;;;;;13.93;100.00;96276.00;5064414;28;20036;-76
2022/10/14 08:26:31;;;;;;;21.63;13.73;;;;;;;13.77;100.00;96275.13;5050759;28;20037;-77
2022/10/14 08:29:04;;;;;;;19.35;13.15;;;;;;;13.91;100.00;96276.16;5060981;28;20117;-76
2022/10/14 08:31:30;;;;;;;17.70;12.05;;;;;;;13.82;100.00;96270.13;5064669;28;20466;-77
2022/10/14 08:33:56;;;;;;;19.33;11.85;;;;;;;13.86;100.00;96271.41;5065980;28;20025;-77
2022/10/14 08:36:22;;;;;;;17.20;11.70;;;;;;;13.99;100.00;96267.34;5066264;28;20048;-77
2022/10/14 08:38:51;;;;;;;16.20;11.07;;;;;;;13.92;100.00;96272.53;5047924;28;20044;-76
2022/10/14 08:41:48;;;;;;;17.85;11.30;;;;;;;13.90;100.00;96267.41;5062650;28;20071;-77
2022/10/14 08:44:23;;;;;;;18.13;12.48;;;;;;;14.05;100.00;96263.94;5064440;28;20060;-77
2022/10/14 08:46:57;;;;;;;17.92;12.15;;;;;;;13.93;100.00;96253.00;5070274;28;20324;-77
2022/10/14 08:49:42;;;;;;;17.13;11.60;;;;;;;14.03;100.00;96261.50;5064409;28;20045;-76
2022/10/14 08:52:38;;;;;;;18.50;11.65;;;;;;;14.01;100.00;96257.38;5058330;28;20028;-76
2022/10/14 08:55:18;;;;;;;17.58;10.95;;;;;;;14.08;100.00;96253.03;5062630;28;20044;-77
2022/10/14 08:57:50;;;;;;;17.42;10.07;;;;;;;14.23;100.00;96256.50;5047743;28;20025;-77
2022/10/14 09:00:19;;;;;;;18.23;10.60;;;;;;;14.34;100.00;96253.41;5063755;28;20028;-77
2022/10/14 09:02:51;;;;;;;16.23;10.38;;;;;;;14.60;100.00;96252.16;5059787;28;20032;-77
2022/10/14 09:05:21;;;;;;;14.52;10.40;;;;;;;14.67;100.00;96246.97;5048333;28;20582;-77
2022/10/14 09:07:49;;;;;;;15.88;10.10;;;;;;;14.97;100.00;96247.72;5066487;28;20036;-76
2022/10/14 09:10:45;;;;;;;17.08;9.05;;;;;;;14.90;100.00;96244.19;5061846;28;20039;-77
2022/10/14 09:13:17;;;;;;;14.52;8.70;;;;;;;14.98;100.00;96244.06;5040853;28;20045;-76
2022/10/14 09:15:49;;;;;;;14.50;8.43;;;;;;;14.99;100.00;96241.25;5046566;28;20037;-77
2022/10/14 09:18:21;;;;;;;12.20;8.18;;;;;;;15.27;100.00;96233.38;5059117;28;20029;-77
2022/10/14 09:20:47;;;;;;;13.15;7.55;;;;;;;15.75;100.00;96228.34;5064861;28;20040;-76
2022/10/14 09:23:18;;;;;;;12.02;7.97;;;;;;;15.53;100.00;96226.72;5067711;28;20557;-77
2022/10/14 09:26:00;;;;;;;10.75;6.93;;;;;;;15.46;100.00;96223.16;5066096;28;20033;-76
2022/10/14 09:28:38;;;;;;;10.98;6.85;;;;;;;15.50;100.00;96237.69;5068638;28;20032;-77
2022/10/14 09:31:05;;;;;;;12.75;5.82;;;;;;;15.12;100.00;96226.50;5046184;28;20032;-77
2022/10/14 09:33:33;;;;;;;11.68;6.70;;;;;;;15.38;100.00;96218.81;5069249;28;20017;-76
2022/10/14 09:35:59;;;;;;;11.95;5.95;;;;;;;15.40;100.00;96227.41;5069341;28;20051;-76
2022/10/14 09:38:26;;;;;;;13.05;7.00;;;;;;;15.55;100.00;96214.88;5065645;28;20041;-77
2022/10/14 09:40:57;;;;;;;9.32;6.55;;;;;;;15.54;100.00;96223.03;5068230;28;20032;-77
2022/10/14 09:43:23;;;;;;;11.05;6.32;;;;;;;15.49;100.00;96214.81;5069293;28;20116;-77
2022/10/14 09:46:02;;;;;;;10.50;6.32;;;;;;;15.45;100.00;96210.91;5068820;28;20060;-77
2022/10/14 09:48:46;;;;;;;9.52;5.38;;;;;;;15.49;100.00;96209.53;5055297;28;20487;-76
2022/10/14 09:51:29;;;;;;;9.68;5.50;;;;;;;15.36;100.00;96204.94;5067771;28;20152;-75
2022/10/14 09:54:04;;;;;;;9.95;6.43;;;;;;;15.44;100.00;96209.28;5063536;28;20114;-77
2022/10/14 09:56:31;;;;;;;9.00;5.32;;;;;;;15.50;100.00;96206.69;5068642;28;20128;-77
2022/10/14 09:58:57;;;;;;;8.05;5.50;;;;;;;15.55;100.00;96208.78;5065842;28;20399;-77
2022/10/14 10:01:26;;;;;;;10.80;4.97;;;;;;;15.33;100.00;96208.78;5067742;28;21078;-76
2022/10/14 10:03:52;;;;;;;10.07;4.82;;;;;;;15.65;100.00;96201.31;5067991;28;20024;-77
2022/10/14 10:06:26;;;;;;;10.32;5.15;;;;;;;15.63;100.00;96200.69;5067782;28;20052;-77
2022/10/14 10:08:52;;;;;;;13.75;6.25;;;;;;;15.66;100.00;96189.75;5047962;28;20384;-77
2022/10/14 10:11:34;;;;;;;8.70;5.30;;;;;;;15.76;100.00;96195.53;5064853;28;20032;-76
2022/10/14 10:14:20;;;;;;;10.07;5.85;;;;;;;15.68;100.00;96194.84;5081235;28;20032;-77
2022/10/14 10:16:47;;;;;;;9.90;6.10;;;;;;;15.71;100.00;96187.31;5067680;28;20086;-77
2022/10/14 10:19:28;;;;;;;9.68;5.30;;;;;;;15.66;100.00;96186.22;5067157;28;20048;-77
2022/10/14 10:21:55;;;;;;;8.27;5.78;;;;;;;15.83;100.00;96186.78;5041042;28;20040;-77
2022/10/14 10:24:22;;;;;;;11.57;5.70;;;;;;;15.66;100.00;96184.44;5067217;28;20070;-77
2022/10/14 10:26:49;;;;;;;9.55;5.15;;;;;;;15.75;100.00;96182.44;5066194;28;20736;-77
2022/10/14 10:29:30;;;;;;;9.52;5.03;;;;;;;15.54;100.00;96177.97;5066492;28;20115;-76
2022/10/14 10:32:11;;;;;;;8.02;4.88;;;;;;;15.59;100.00;96178.22;5061401;28;20490;-77
2022/10/14 10:35:02;;;;;;;11.70;5.47;;;;;;;15.70;100.00;96180.38;5049352;28;20091;-77
2022/10/14 10:37:32;;;;;;;7.60;5.13;;;;;;;15.52;100.00;96172.03;5051910;28;20539;-76
2022/10/14 10:40:16;;;;;;;9.50;5.18;;;;;;;15.44;100.00;96169.53;5056862;28;20032;-77
2022/10/14 10:42:45;;;;;;;8.98;4.82;;;;;;;15.37;100.00;96171.31;5064509;28;20052;-77
2022/10/14 10:45:41;;;;;;;8.98;5.40;;;;;;;15.10;100.00;96163.13;5068251;28;20569;-77
2022/10/14 10:48:17;;;;;;;11.25;5.75;;;;;;;15.11;100.00;96154.16;5066470;28;20024;-77
2022/10/14 10:51:06;;;;;;;8.70;5.45;;;;;;;15.18;100.00;96147.09;5065984;28;20036;-76
2022/10/14 10:53:44;;;;;;;7.68;4.68;;;;;;;15.27;100.00;96143.31;5067637;28;20480;-77
2022/10/14 10:56:09;;;;;;;12.07;6.05;;;;;;;15.58;100.00;96136.81;5064051;28;20036;-77
2022/10/14 10:58:41;;;;;;;9.73;4.82;;;;;;;15.87;100.00;96135.03;5063835;28;20028;-77
2022/10/14 11:01:24;;;;;;;10.32;4.88;;;;;;;15.87;100.00;96127.06;5068658;28;20403;-77
2022/10/14 11:04:03;;;;;;;12.23;5.07;;;;;;;16.14;100.00;96128.84;5052636;28;20036;-77
2022/10/14 11:13:14;;;;;;;7.05;4.20;;;;;;;16.88;100.00;96108.72;5061675;28;20048;-77
2022/10/14 11:15:49;;;;;;;9.07;4.85;;;;;;;17.16;100.00;96106.69;5062960;28;20843;-77
2022/10/14 11:18:47;;;;;;;7.97;4.35;;;;;;;17.10;100.00;96093.41;5049024;28;20065;-76
2022/10/14 11:21:32;;;;;;;7.97;4.13;;;;;;;17.29;100.00;96094.44;5064659;28;20447;-77
2022/10/14 11:24:13;;;;;;;7.68;4.10;;;;;;;17.15;100.00;96094.44;5058794;28;20063;-76
2022/10/14 11:26:47;;;;;;;9.05;4.82;;;;;;;17.04;100.00;96091.56;5063614;28;20509;-77
2022/10/14 11:29:21;;;;;;;9.30;4.45;;;;;;;16.79;100.00;96086.00;5055716;28;20052;-78
2022/10/14 11:32:05;;;;;;;8.77;4.43;;;;;;;16.87;100.00;96075.22;5050717;28;20029;-77
2022/10/14 11:35:01;;;;;;;10.68;5.03;;;;;;;16.96;100.00;96077.44;5070911;28;20058;-78
2022/10/14 11:38:01;;;;;;;11.13;5.40;;;;;;;16.92;100.00;96062.94;5075833;28;20044;-78